createdAt,value
2019-05-23T00:00:29.346Z,11.00
2019-05-23T00:02:58.883Z,11.10
2019-05-23T00:05:32.976Z,11.10
2019-05-23T00:08:06.372Z,11.10
2019-05-23T00:10:42.911Z,11.00
2019-05-23T00:13:15.060Z,11.10
2019-05-23T00:15:47.187Z,11.10
2019-05-23T00:18:20.956Z,11.10
2019-05-23T00:20:49.603Z,11.10
2019-05-23T00:23:18.676Z,11.00
2019-05-23T00:25:49.425Z,11.00
2019-05-23T00:28:18.481Z,11.00
2019-05-23T00:30:54.016Z,11.00
2019-05-23T00:33:27.630Z,11.00
2019-05-23T00:35:59.189Z,11.00
2019-05-23T00:38:28.589Z,10.90
2019-05-23T00:40:57.980Z,10.90
2019-05-23T00:43:27.590Z,10.80
2019-05-23T00:45:58.120Z,10.70
2019-05-23T00:48:27.132Z,10.70
2019-05-23T00:50:57.065Z,10.70
2019-05-23T00:53:26.161Z,10.60
2019-05-23T00:55:56.384Z,10.70
2019-05-23T00:58:25.865Z,10.70
2019-05-23T01:00:56.471Z,10.60
2019-05-23T01:03:28.481Z,10.70
2019-05-23T01:05:59.585Z,10.70
2019-05-23T01:08:30.464Z,10.60
2019-05-23T01:11:00.004Z,10.60
2019-05-23T01:13:29.701Z,10.60
2019-05-23T01:15:58.870Z,10.60
2019-05-23T01:18:28.175Z,10.50
2019-05-23T01:21:17.327Z,10.50
2019-05-23T01:23:51.130Z,10.50
2019-05-23T01:26:20.244Z,10.50
2019-05-23T01:28:50.066Z,10.40
2019-05-23T01:31:22.442Z,10.30
2019-05-23T01:33:53.085Z,10.30
2019-05-23T01:36:23.236Z,10.40
2019-05-23T01:38:52.953Z,10.40
2019-05-23T01:41:22.944Z,10.40
2019-05-23T01:43:53.451Z,10.40
2019-05-23T01:46:22.831Z,10.30
2019-05-23T01:48:52.024Z,10.40
2019-05-23T01:51:22.789Z,10.40
2019-05-23T01:53:51.979Z,10.30
2019-05-23T01:56:21.173Z,10.30
2019-05-23T01:58:50.750Z,10.20
2019-05-23T02:01:22.165Z,10.20
2019-05-23T02:03:51.111Z,10.20
2019-05-23T02:06:20.249Z,10.20
2019-05-23T02:08:49.901Z,10.20
2019-05-23T02:11:22.702Z,10.20
2019-05-23T02:14:00.102Z,10.10
2019-05-23T02:16:29.434Z,10.10
2019-05-23T02:18:58.476Z,10.10
2019-05-23T02:21:28.664Z,10.10
2019-05-23T02:23:58.286Z,10.10
2019-05-23T02:26:28.845Z,10.10
2019-05-23T02:28:59.053Z,10.10
2019-05-23T02:31:28.045Z,10.00
2019-05-23T02:33:57.501Z,10.00
2019-05-23T02:36:26.553Z,10.00
2019-05-23T02:39:13.796Z,9.90
2019-05-23T02:41:49.796Z,9.90
2019-05-23T02:44:21.712Z,9.90
2019-05-23T02:46:59.978Z,9.80
2019-05-23T02:49:31.348Z,9.80
2019-05-23T02:52:08.347Z,9.80
2019-05-23T02:54:37.774Z,9.80
2019-05-23T02:57:11.315Z,9.80
2019-05-23T02:59:49.464Z,9.80
2019-05-23T03:03:14.470Z,9.90
2019-05-23T03:05:45.199Z,9.80
2019-05-23T03:08:17.453Z,9.80
2019-05-23T03:11:12.529Z,9.80
2019-05-23T03:13:43.240Z,9.70
2019-05-23T03:16:18.210Z,9.70
2019-05-23T03:18:50.715Z,9.70
2019-05-23T03:21:21.058Z,9.70
2019-05-23T03:23:52.029Z,9.70
2019-05-23T03:26:58.142Z,9.70
2019-05-23T03:29:29.702Z,9.70
2019-05-23T03:32:11.612Z,9.70
2019-05-23T03:34:42.588Z,9.70
2019-05-23T03:37:11.985Z,9.70
2019-05-23T03:39:41.471Z,9.80
2019-05-23T03:42:10.782Z,9.80
2019-05-23T03:44:40.413Z,9.80
2019-05-23T03:47:14.180Z,9.80
2019-05-23T03:49:43.187Z,9.80
2019-05-23T03:52:15.125Z,9.80
2019-05-23T03:54:45.881Z,9.80
2019-05-23T03:57:16.320Z,9.80
2019-05-23T03:59:46.315Z,9.80
2019-05-23T04:02:17.029Z,9.70
2019-05-23T04:04:47.141Z,9.70
2019-05-23T04:07:16.183Z,9.70
2019-05-23T04:09:45.990Z,9.70
2019-05-23T04:12:15.152Z,9.70
2019-05-23T04:14:45.698Z,9.80
2019-05-23T04:17:15.314Z,9.80
2019-05-23T04:19:44.535Z,9.90
2019-05-23T04:22:13.477Z,9.90
2019-05-23T04:24:42.632Z,10.00
2019-05-23T04:27:11.690Z,10.10
2019-05-23T04:29:40.617Z,10.10
2019-05-23T04:32:09.888Z,10.20
2019-05-23T04:34:39.243Z,10.30
2019-05-23T04:37:08.109Z,10.40
2019-05-23T04:39:37.154Z,10.40
2019-05-23T04:42:06.938Z,10.50
2019-05-23T04:44:36.432Z,10.60
2019-05-23T04:47:06.377Z,10.60
2019-05-23T04:49:35.425Z,10.70
2019-05-23T04:52:05.050Z,10.80
2019-05-23T04:54:34.309Z,10.80
2019-05-23T04:57:05.311Z,10.90
2019-05-23T04:59:34.602Z,11.00
2019-05-23T05:02:03.891Z,11.00
2019-05-23T05:04:33.304Z,11.10
2019-05-23T05:07:02.286Z,11.20
2019-05-23T05:09:33.135Z,11.30
2019-05-23T05:12:02.996Z,11.40
2019-05-23T05:14:32.508Z,11.50
2019-05-23T05:17:01.948Z,11.70
2019-05-23T05:19:31.298Z,11.70
2019-05-23T05:22:00.431Z,11.80
2019-05-23T05:24:29.882Z,11.90
2019-05-23T05:26:58.966Z,11.90
2019-05-23T05:29:27.843Z,12.10
2019-05-23T05:31:57.330Z,12.20
2019-05-23T05:34:27.155Z,12.30
2019-05-23T05:36:56.583Z,12.50
2019-05-23T05:39:25.678Z,12.60
2019-05-23T05:41:55.184Z,12.70
2019-05-23T05:44:24.841Z,12.80
2019-05-23T05:46:53.889Z,13.00
2019-05-23T05:49:25.459Z,13.10
2019-05-23T05:51:54.514Z,14.30
2019-05-23T05:54:24.202Z,15.70
2019-05-23T05:56:53.353Z,15.80
2019-05-23T05:59:22.505Z,16.10
2019-05-23T06:01:51.453Z,16.30
2019-05-23T06:04:20.498Z,16.40
2019-05-23T06:07:03.081Z,16.80
2019-05-23T06:09:32.662Z,16.10
2019-05-23T06:12:01.528Z,15.70
2019-05-23T06:14:31.250Z,15.90
2019-05-23T06:17:01.750Z,16.00
2019-05-23T06:19:30.994Z,15.70
2019-05-23T06:22:00.143Z,15.50
2019-05-23T06:24:44.283Z,15.40
2019-05-23T06:26:59.977Z,15.40
2019-05-23T06:29:29.142Z,15.40
2019-05-23T06:31:58.516Z,15.50
2019-05-23T06:34:27.760Z,15.70
2019-05-23T06:36:56.922Z,15.80
2019-05-23T06:39:25.915Z,15.80
2019-05-23T06:41:55.982Z,16.00
2019-05-23T06:44:25.734Z,15.90
2019-05-23T06:46:55.512Z,16.10
2019-05-23T06:49:24.549Z,16.20
2019-05-23T06:51:53.724Z,16.40
2019-05-23T06:54:22.661Z,16.50
2019-05-23T06:56:51.560Z,16.70
2019-05-23T06:59:21.331Z,16.90
2019-05-23T07:01:50.300Z,17.00
2019-05-23T07:04:20.184Z,17.10
2019-05-23T07:06:49.665Z,17.30
2019-05-23T07:09:19.959Z,17.60
2019-05-23T07:11:49.387Z,17.70
2019-05-23T07:14:18.650Z,17.80
2019-05-23T07:16:50.215Z,17.80
2019-05-23T07:19:19.760Z,18.00
2019-05-23T07:21:48.883Z,18.10
2019-05-23T07:24:18.687Z,18.30
2019-05-23T07:26:48.021Z,18.30
2019-05-23T07:29:17.375Z,18.60
2019-05-23T07:31:46.345Z,18.70
2019-05-23T07:34:16.049Z,18.80
2019-05-23T07:36:45.382Z,18.60
2019-05-23T07:39:14.746Z,18.80
2019-05-23T07:41:43.978Z,19.10
2019-05-23T07:44:14.014Z,19.20
2019-05-23T07:46:42.924Z,19.20
2019-05-23T07:49:12.904Z,19.10
2019-05-23T07:51:41.929Z,19.60
2019-05-23T07:54:25.975Z,19.50
2019-05-23T07:56:55.465Z,19.60
2019-05-23T07:59:24.440Z,19.90
2019-05-23T08:02:04.441Z,19.90
2019-05-23T08:04:33.407Z,19.80
2019-05-23T08:07:02.437Z,20.00
2019-05-23T08:09:32.136Z,19.80
2019-05-23T08:12:01.148Z,20.00
2019-05-23T08:14:30.261Z,20.00
2019-05-23T08:16:59.849Z,20.10
2019-05-23T08:19:28.941Z,20.20
2019-05-23T08:21:58.016Z,20.40
2019-05-23T08:24:27.167Z,20.50
2019-05-23T08:26:56.904Z,20.40
2019-05-23T08:29:27.133Z,20.50
2019-05-23T08:31:56.529Z,20.70
2019-05-23T08:34:40.560Z,20.90
2019-05-23T08:36:58.070Z,21.10
2019-05-23T08:39:27.716Z,20.90
2019-05-23T08:41:57.006Z,20.90
2019-05-23T08:44:26.304Z,21.00
2019-05-23T08:46:55.874Z,20.70
2019-05-23T08:49:25.050Z,21.00
2019-05-23T08:51:54.605Z,21.30
2019-05-23T08:54:23.487Z,21.60
2019-05-23T08:56:52.825Z,21.70
2019-05-23T08:59:23.378Z,21.60
2019-05-23T09:01:52.537Z,21.50
2019-05-23T09:04:21.813Z,21.60
2019-05-23T09:06:51.349Z,21.80
2019-05-23T09:09:29.451Z,21.30
2019-05-23T09:11:52.152Z,21.50
2019-05-23T09:14:21.569Z,22.00
2019-05-23T09:16:50.672Z,22.40
2019-05-23T09:19:19.965Z,22.20
2019-05-23T09:21:49.302Z,22.20
2019-05-23T09:24:18.326Z,22.20
2019-05-23T09:26:48.075Z,22.20
2019-05-23T09:29:17.826Z,22.60
2019-05-23T09:31:46.989Z,22.20
2019-05-23T09:34:16.130Z,21.80
2019-05-23T09:36:45.145Z,22.00
2019-05-23T09:39:17.514Z,22.50
2019-05-23T09:41:47.193Z,22.90
2019-05-23T09:44:16.292Z,22.60
2019-05-23T09:46:45.419Z,22.90
2019-05-23T09:49:14.579Z,22.80
2019-05-23T09:51:43.627Z,22.60
2019-05-23T09:54:13.005Z,22.60
2019-05-23T09:56:42.321Z,22.70
2019-05-23T09:59:11.290Z,23.30
2019-05-23T10:01:40.339Z,22.90
2019-05-23T10:04:09.892Z,22.70
2019-05-23T10:06:38.928Z,22.40
2019-05-23T10:09:09.044Z,22.80
2019-05-23T10:11:37.997Z,23.30
2019-05-23T10:14:09.116Z,23.50
2019-05-23T10:16:39.187Z,23.10
2019-05-23T10:19:08.333Z,23.60
2019-05-23T10:21:37.288Z,23.50
2019-05-23T10:24:06.984Z,23.70
2019-05-23T10:26:35.917Z,23.60
2019-05-23T10:29:04.959Z,23.60
2019-05-23T10:31:34.050Z,23.10
2019-05-23T10:34:02.936Z,23.30
2019-05-23T10:36:32.059Z,23.10
2019-05-23T10:39:01.248Z,22.80
2019-05-23T10:41:30.419Z,23.70
2019-05-23T10:43:59.490Z,23.60
2019-05-23T10:46:28.725Z,23.50
2019-05-23T10:48:57.674Z,23.10
2019-05-23T10:51:26.582Z,23.20
2019-05-23T10:53:56.236Z,23.60
2019-05-23T10:56:26.257Z,23.50
2019-05-23T10:58:55.396Z,24.20
2019-05-23T11:01:24.758Z,24.70
2019-05-23T11:03:53.897Z,24.70
2019-05-23T11:06:23.413Z,24.00
2019-05-23T11:08:53.022Z,24.20
2019-05-23T11:11:22.486Z,24.50
2019-05-23T11:13:51.626Z,25.10
2019-05-23T11:16:21.541Z,24.80
2019-05-23T11:18:50.640Z,24.70
2019-05-23T11:21:20.044Z,24.20
2019-05-23T11:23:51.690Z,23.80
2019-05-23T11:26:20.843Z,23.80
2019-05-23T11:28:50.258Z,23.80
2019-05-23T11:31:19.460Z,24.70
2019-05-23T11:33:48.653Z,24.20
2019-05-23T11:36:33.798Z,23.80
2019-05-23T11:38:48.564Z,24.20
2019-05-23T11:41:18.206Z,24.80
2019-05-23T11:43:47.478Z,25.00
2019-05-23T11:46:21.443Z,24.90
2019-05-23T11:48:51.290Z,24.60
2019-05-23T11:51:24.563Z,25.00
2019-05-23T11:54:06.590Z,25.00
2019-05-23T11:56:22.486Z,25.00
2019-05-23T11:58:51.781Z,25.00
2019-05-23T12:01:32.110Z,24.90
2019-05-23T12:04:38.776Z,25.00
2019-05-23T12:07:15.599Z,25.00
2019-05-23T12:09:44.646Z,24.90
2019-05-23T12:12:13.802Z,24.70
2019-05-23T12:14:43.209Z,24.90
2019-05-23T12:17:13.102Z,25.10
2019-05-23T12:19:42.425Z,25.40
2019-05-23T12:22:12.408Z,25.40
2019-05-23T12:24:41.473Z,25.60
2019-05-23T12:27:11.086Z,25.70
2019-05-23T12:29:40.089Z,25.50
2019-05-23T12:32:10.608Z,25.00
2019-05-23T12:34:39.642Z,25.30
2019-05-23T12:37:24.104Z,25.00
2019-05-23T12:39:39.542Z,24.70
2019-05-23T12:42:08.543Z,24.50
2019-05-23T12:44:37.795Z,24.70
2019-05-23T12:47:10.174Z,24.90
2019-05-23T12:49:43.783Z,24.90
2019-05-23T12:52:14.149Z,25.20
2019-05-23T12:54:43.081Z,25.80
2019-05-23T12:57:12.828Z,25.70
2019-05-23T12:59:42.045Z,25.70
2019-05-23T13:02:15.333Z,25.00
2019-05-23T13:04:45.057Z,25.60
2019-05-23T13:07:15.284Z,25.40
2019-05-23T13:09:44.556Z,25.70
2019-05-23T13:12:16.419Z,26.00
2019-05-23T13:14:44.456Z,25.40
2019-05-23T13:17:13.682Z,25.60
2019-05-23T13:19:42.813Z,25.50
2019-05-23T13:22:12.216Z,25.80
2019-05-23T13:24:51.880Z,25.60
2019-05-23T13:27:12.351Z,25.70
2019-05-23T13:29:41.339Z,25.70
2019-05-23T13:32:10.401Z,25.80
2019-05-23T13:34:39.721Z,26.00
2019-05-23T13:37:10.601Z,26.10
2019-05-23T13:39:39.744Z,26.20
2019-05-23T13:42:08.864Z,26.50
2019-05-23T13:44:37.881Z,25.90
2019-05-23T13:47:07.158Z,25.70
2019-05-23T13:49:36.915Z,25.70
2019-05-23T13:52:05.965Z,25.70
2019-05-23T13:54:40.676Z,26.00
2019-05-23T13:57:09.985Z,26.00
2019-05-23T13:59:39.010Z,25.90
2019-05-23T14:02:08.992Z,25.90
2019-05-23T14:04:38.327Z,26.30
2019-05-23T14:07:08.933Z,26.00
2019-05-23T14:09:38.362Z,25.70
2019-05-23T14:12:20.820Z,25.50
2019-05-23T14:14:39.596Z,25.70
2019-05-23T14:17:33.494Z,26.10
2019-05-23T14:20:02.829Z,25.80
2019-05-23T14:22:33.430Z,25.60
2019-05-23T14:25:02.691Z,25.50
2019-05-23T14:27:42.353Z,25.80
2019-05-23T14:30:24.660Z,25.80
2019-05-23T14:32:57.338Z,26.00
2019-05-23T14:35:29.726Z,25.90
2019-05-23T14:38:00.766Z,25.90
2019-05-23T14:40:30.387Z,26.10
2019-05-23T14:43:08.938Z,26.00
2019-05-23T14:45:57.882Z,25.90
2019-05-23T14:48:44.819Z,25.90
2019-05-23T14:51:24.018Z,25.30
2019-05-23T14:53:57.332Z,24.80
2019-05-23T14:56:27.916Z,24.60
2019-05-23T14:58:57.037Z,24.90
2019-05-23T15:01:28.683Z,25.00
2019-05-23T15:03:57.835Z,25.00
2019-05-23T15:06:26.867Z,24.90
2019-05-23T15:08:56.271Z,24.90
2019-05-23T15:11:25.383Z,24.90
2019-05-23T15:13:54.403Z,25.20
2019-05-23T15:16:24.422Z,24.50
2019-05-23T15:18:53.508Z,24.80
2019-05-23T15:21:22.585Z,23.90
2019-05-23T15:23:51.634Z,23.80
2019-05-23T15:26:23.439Z,24.10
2019-05-23T15:28:51.413Z,24.10
2019-05-23T15:31:20.512Z,24.10
2019-05-23T15:33:49.383Z,23.80
2019-05-23T15:36:18.500Z,24.10
2019-05-23T15:38:47.552Z,23.80
2019-05-23T15:41:16.494Z,23.70
2019-05-23T15:43:45.701Z,23.40
2019-05-23T15:46:15.084Z,23.30
2019-05-23T15:48:44.220Z,23.10
2019-05-23T15:51:16.332Z,23.10
2019-05-23T15:54:00.472Z,23.20
2019-05-23T15:56:36.321Z,22.90
2019-05-23T15:59:26.043Z,22.60
2019-05-23T16:02:05.611Z,22.80
2019-05-23T16:04:34.846Z,22.80
2019-05-23T16:07:03.895Z,22.80
2019-05-23T16:09:33.861Z,22.70
2019-05-23T16:12:03.567Z,22.70
2019-05-23T16:14:33.172Z,22.70
2019-05-23T16:17:03.216Z,22.60
2019-05-23T16:19:32.681Z,22.60
2019-05-23T16:22:01.750Z,22.50
2019-05-23T16:24:30.950Z,22.60
2019-05-23T16:27:00.121Z,22.50
2019-05-23T16:29:29.943Z,22.50
2019-05-23T16:31:59.096Z,22.30
2019-05-23T16:34:28.247Z,22.20
2019-05-23T16:36:57.288Z,22.20
2019-05-23T16:39:26.937Z,21.90
2019-05-23T16:41:56.138Z,21.90
2019-05-23T16:44:25.090Z,21.90
2019-05-23T16:46:54.232Z,21.60
2019-05-23T16:49:23.207Z,21.70
2019-05-23T16:51:52.553Z,21.70
2019-05-23T16:54:24.894Z,21.80
2019-05-23T16:57:00.563Z,21.60
2019-05-23T16:59:35.694Z,21.50
2019-05-23T17:02:11.633Z,21.50
2019-05-23T17:04:48.337Z,21.50
2019-05-23T17:07:35.307Z,21.50
2019-05-23T17:10:19.346Z,21.20
2019-05-23T17:12:53.881Z,21.10
2019-05-23T17:15:38.259Z,21.10
2019-05-23T17:18:21.336Z,21.00
2019-05-23T17:20:56.999Z,21.00
2019-05-23T17:23:37.603Z,21.20
2019-05-23T17:26:12.219Z,21.20
2019-05-23T17:28:44.706Z,21.20
2019-05-23T17:31:16.418Z,21.10
2019-05-23T17:33:46.460Z,21.00
2019-05-23T17:36:15.595Z,20.90
2019-05-23T17:38:44.781Z,21.10
2019-05-23T17:41:14.274Z,20.90
2019-05-23T17:43:43.428Z,21.10
2019-05-23T17:46:13.122Z,21.10
2019-05-23T17:48:42.821Z,20.80
2019-05-23T17:51:11.766Z,20.60
2019-05-23T17:53:40.901Z,20.50
2019-05-23T17:56:10.490Z,20.50
2019-05-23T17:58:39.785Z,20.50
2019-05-23T18:01:09.302Z,20.50
2019-05-23T18:03:38.451Z,20.40
2019-05-23T18:06:08.500Z,20.30
2019-05-23T18:08:39.291Z,20.30
2019-05-23T18:11:09.079Z,20.30
2019-05-23T18:13:38.457Z,20.30
2019-05-23T18:16:07.835Z,20.30
2019-05-23T18:18:37.129Z,20.30
2019-05-23T18:21:07.830Z,20.30
2019-05-23T18:23:37.654Z,20.30
2019-05-23T18:26:07.589Z,20.20
2019-05-23T18:28:37.046Z,20.10
2019-05-23T18:31:12.979Z,19.90
2019-05-23T18:33:43.139Z,19.70
2019-05-23T18:36:12.243Z,19.70
2019-05-23T18:38:41.355Z,19.60
2019-05-23T18:41:11.175Z,19.60
2019-05-23T18:43:40.254Z,19.40
2019-05-23T18:46:14.841Z,19.20
2019-05-23T18:48:43.869Z,19.10
2019-05-23T18:51:13.543Z,19.10
2019-05-23T18:53:42.885Z,19.10
2019-05-23T18:56:12.058Z,19.00
2019-05-23T18:58:41.039Z,19.00
2019-05-23T19:01:20.174Z,18.90
2019-05-23T19:03:49.146Z,18.90
2019-05-23T19:06:18.384Z,18.90
2019-05-23T19:08:47.931Z,18.90
2019-05-23T19:11:21.178Z,18.80
2019-05-23T19:13:48.082Z,18.70
2019-05-23T19:16:17.458Z,18.50
2019-05-23T19:18:47.249Z,18.40
2019-05-23T19:21:18.284Z,18.40
2019-05-23T19:23:47.567Z,18.30
2019-05-23T19:26:17.601Z,18.20
2019-05-23T19:28:47.114Z,18.10
2019-05-23T19:31:16.825Z,18.10
2019-05-23T19:33:46.721Z,18.00
2019-05-23T19:36:16.442Z,17.90
2019-05-23T19:38:45.674Z,17.90
2019-05-23T19:41:14.910Z,17.80
2019-05-23T19:43:47.942Z,17.80
2019-05-23T19:46:14.904Z,17.70
2019-05-23T19:48:45.108Z,17.70
2019-05-23T19:51:14.486Z,17.60
2019-05-23T19:53:43.735Z,17.60
2019-05-23T19:56:13.061Z,17.50
2019-05-23T19:58:42.334Z,17.40
2019-05-23T20:01:11.385Z,17.30
2019-05-23T20:03:41.006Z,17.20
2019-05-23T20:06:11.597Z,17.20
2019-05-23T20:08:41.039Z,17.10
2019-05-23T20:11:10.486Z,17.10
2019-05-23T20:13:40.239Z,17.20
2019-05-23T20:16:10.437Z,17.30
2019-05-23T20:18:40.094Z,17.30
2019-05-23T20:21:09.210Z,17.30
2019-05-23T20:23:38.120Z,17.20
2019-05-23T20:26:08.562Z,17.10
2019-05-23T20:28:40.143Z,17.20
2019-05-23T20:31:09.246Z,17.10
2019-05-23T20:33:38.182Z,17.00
2019-05-23T20:36:13.096Z,16.90
2019-05-23T20:38:42.608Z,16.90
2019-05-23T20:41:11.953Z,16.90
2019-05-23T20:43:41.348Z,16.90
2019-05-23T20:46:10.537Z,16.80
2019-05-23T20:48:39.632Z,16.70
2019-05-23T20:51:08.804Z,16.80
2019-05-23T20:53:37.861Z,16.80
2019-05-23T20:56:06.969Z,16.70
2019-05-23T20:58:36.153Z,16.70
2019-05-23T21:01:18.295Z,16.60
2019-05-23T21:03:48.032Z,16.50
2019-05-23T21:06:17.232Z,16.40
2019-05-23T21:08:46.197Z,16.40
2019-05-23T21:11:15.255Z,16.40
2019-05-23T21:13:44.274Z,16.40
2019-05-23T21:16:13.700Z,16.40
2019-05-23T21:18:42.769Z,16.40
2019-05-23T21:21:11.999Z,16.40
2019-05-23T21:23:41.108Z,16.40
2019-05-23T21:26:11.065Z,16.30
2019-05-23T21:28:40.116Z,16.30
2019-05-23T21:31:15.931Z,16.30
2019-05-23T21:33:45.131Z,16.20
2019-05-23T21:36:14.135Z,16.10
2019-05-23T21:38:43.540Z,16.10
2019-05-23T21:41:12.603Z,16.10
2019-05-23T21:43:42.089Z,16.10
2019-05-23T21:46:11.358Z,16.10
2019-05-23T21:48:40.319Z,16.00
2019-05-23T21:51:09.696Z,16.00
2019-05-23T21:53:39.096Z,16.00
2019-05-23T21:56:08.233Z,15.90
2019-05-23T21:58:37.113Z,15.90
2019-05-23T22:01:26.198Z,15.90
2019-05-23T22:04:09.281Z,15.90
2019-05-23T22:06:39.537Z,15.90
2019-05-23T22:09:11.476Z,15.80
2019-05-23T22:11:40.552Z,15.80
2019-05-23T22:14:09.628Z,15.80
2019-05-23T22:16:39.097Z,15.80
2019-05-23T22:19:10.619Z,15.80
2019-05-23T22:21:39.624Z,15.70
2019-05-23T22:24:09.100Z,15.70
2019-05-23T22:26:38.757Z,15.60
2019-05-23T22:29:08.573Z,15.50
2019-05-23T22:31:39.400Z,15.40
2019-05-23T22:34:22.221Z,15.40
2019-05-23T22:36:51.154Z,15.40
2019-05-23T22:39:20.376Z,15.40
2019-05-23T22:41:49.617Z,15.30
2019-05-23T22:44:19.221Z,15.30
2019-05-23T22:46:48.655Z,15.30
2019-05-23T22:49:17.616Z,15.20
2019-05-23T22:51:46.536Z,15.20
2019-05-23T22:54:15.473Z,15.10
2019-05-23T22:56:44.601Z,15.20
2019-05-23T22:59:13.537Z,15.20
2019-05-23T23:01:42.450Z,15.20
2019-05-23T23:04:11.908Z,15.20
2019-05-23T23:06:40.777Z,15.20
2019-05-23T23:09:09.787Z,15.30
2019-05-23T23:11:39.164Z,15.30
2019-05-23T23:14:08.173Z,15.30
2019-05-23T23:16:37.047Z,15.30
2019-05-23T23:19:06.597Z,15.30
2019-05-23T23:21:35.708Z,15.20
2019-05-23T23:24:04.805Z,15.10
2019-05-23T23:26:33.950Z,15.10
2019-05-23T23:29:03.308Z,15.20
2019-05-23T23:31:32.375Z,15.10
2019-05-23T23:34:01.480Z,15.00
2019-05-23T23:36:30.527Z,15.00
2019-05-23T23:38:59.381Z,15.00
2019-05-23T23:41:28.556Z,14.90
2019-05-23T23:43:59.813Z,14.90
2019-05-23T23:46:45.920Z,14.80
2019-05-23T23:49:32.479Z,14.80
2019-05-23T23:52:19.238Z,14.80
2019-05-23T23:55:06.509Z,14.70
2019-05-23T23:57:53.372Z,14.70
